sensor_id;sensor_type;location;lat;lon;timestamp;pressure;altitude;pressure_sealevel;temperature;humidity
15604;BME280;7902;49.042;9.092;2023-04-01T00:00:32;97659.91;;;13.98;54.81
15604;BME280;7902;49.042;9.092;2023-04-01T00:02:58;97663.06;;;13.78;56.02
15604;BME280;7902;49.042;9.092;2023-04-01T00:05:24;97664.22;;;13.83;55.64
15604;BME280;7902;49.042;9.092;2023-04-01T00:07:50;97668.84;;;13.81;55.61
15604;BME280;7902;49.042;9.092;2023-04-01T00:10:17;97670.00;;;13.87;55.08
15604;BME280;7902;49.042;9.092;2023-04-01T00:12:43;97668.19;;;13.87;54.76
15604;BME280;7902;49.042;9.092;2023-04-01T00:15:11;97670.16;;;13.77;55.32
15604;BME280;7902;49.042;9.092;2023-04-01T00:17:37;97659.75;;;14.00;55.33
15604;BME280;7902;49.042;9.092;2023-04-01T00:20:05;97664.84;;;14.01;55.18
15604;BME280;7902;49.042;9.092;2023-04-01T00:22:31;97666.88;;;13.83;55.35
15604;BME280;7902;49.042;9.092;2023-04-01T00:24:57;97659.94;;;13.74;55.68
15604;BME280;7902;49.042;9.092;2023-04-01T00:27:23;97656.81;;;13.79;55.67
15604;BME280;7902;49.042;9.092;2023-04-01T00:29:48;97667.53;;;13.93;55.43
15604;BME280;7902;49.042;9.092;2023-04-01T00:32:15;97661.06;;;13.80;55.27
15604;BME280;7902;49.042;9.092;2023-04-01T00:34:41;97656.13;;;13.85;54.75
15604;BME280;7902;49.042;9.092;2023-04-01T00:37:07;97662.41;;;13.84;55.10
15604;BME280;7902;49.042;9.092;2023-04-01T00:39:34;97675.91;;;14.05;54.88
15604;BME280;7902;49.042;9.092;2023-04-01T00:42:00;97680.53;;;13.87;55.52
15604;BME280;7902;49.042;9.092;2023-04-01T00:44:31;97666.03;;;13.91;55.58
15604;BME280;7902;49.042;9.092;2023-04-01T00:46:59;97662.75;;;13.89;54.89
15604;BME280;7902;49.042;9.092;2023-04-01T00:49:29;97674.13;;;13.73;55.80
15604;BME280;7902;49.042;9.092;2023-04-01T00:51:58;97655.63;;;13.81;54.83
15604;BME280;7902;49.042;9.092;2023-04-01T00:54:25;97663.22;;;13.92;54.51
15604;BME280;7902;49.042;9.092;2023-04-01T00:57:06;97649.53;;;13.81;55.56
15604;BME280;7902;49.042;9.092;2023-04-01T00:59:37;97660.09;;;13.73;55.07
15604;BME280;7902;49.042;9.092;2023-04-01T01:02:07;97658.78;;;13.93;55.28
15604;BME280;7902;49.042;9.092;2023-04-01T01:04:34;97668.16;;;13.95;54.81
15604;BME280;7902;49.042;9.092;2023-04-01T01:10:05;97672.28;;;13.98;55.12
15604;BME280;7902;49.042;9.092;2023-04-01T01:12:44;97672.94;;;14.00;55.13
15604;BME280;7902;49.042;9.092;2023-04-01T01:29:43;97665.69;;;14.02;54.54
15604;BME280;7902;49.042;9.092;2023-04-01T01:37:27;97658.75;;;13.85;55.32
15604;BME280;7902;49.042;9.092;2023-04-01T01:40:07;97663.41;;;13.67;54.67
15604;BME280;7902;49.042;9.092;2023-04-01T01:42:37;97664.53;;;13.96;54.33
15604;BME280;7902;49.042;9.092;2023-04-01T01:45:04;97660.25;;;13.87;54.27
15604;BME280;7902;49.042;9.092;2023-04-01T01:47:33;97664.84;;;14.10;54.21
15604;BME280;7902;49.042;9.092;2023-04-01T01:50:00;97653.31;;;14.02;54.33
15604;BME280;7902;49.042;9.092;2023-04-01T01:52:27;97659.22;;;14.04;54.15
15604;BME280;7902;49.042;9.092;2023-04-01T01:54:57;97668.31;;;13.94;54.14
15604;BME280;7902;49.042;9.092;2023-04-01T01:57:29;97657.94;;;13.76;54.92
15604;BME280;7902;49.042;9.092;2023-04-01T02:00:02;97671.16;;;13.92;54.46
15604;BME280;7902;49.042;9.092;2023-04-01T02:02:33;97657.13;;;13.92;54.72
15604;BME280;7902;49.042;9.092;2023-04-01T02:04:59;97654.97;;;13.95;54.35
15604;BME280;7902;49.042;9.092;2023-04-01T02:07:31;97652.19;;;13.89;53.94
15604;BME280;7902;49.042;9.092;2023-04-01T02:09:58;97659.75;;;13.92;53.46
15604;BME280;7902;49.042;9.092;2023-04-01T02:12:26;97664.84;;;14.10;53.62
15604;BME280;7902;49.042;9.092;2023-04-01T02:15:12;97654.94;;;14.12;53.44
15604;BME280;7902;49.042;9.092;2023-04-01T02:17:43;97658.44;;;13.88;53.73
15604;BME280;7902;49.042;9.092;2023-04-01T02:20:19;97660.88;;;14.14;53.06
15604;BME280;7902;49.042;9.092;2023-04-01T02:22:54;97660.06;;;14.05;53.24
15604;BME280;7902;49.042;9.092;2023-04-01T02:25:28;97654.78;;;14.05;52.71
15604;BME280;7902;49.042;9.092;2023-04-01T02:27:56;97662.53;;;14.15;52.41
15604;BME280;7902;49.042;9.092;2023-04-01T02:30:25;97651.31;;;14.04;52.58
15604;BME280;7902;49.042;9.092;2023-04-01T02:32:52;97650.81;;;14.17;52.45
15604;BME280;7902;49.042;9.092;2023-04-01T02:35:18;97649.69;;;13.95;53.03
15604;BME280;7902;49.042;9.092;2023-04-01T02:37:46;97661.75;;;13.66;54.85
15604;BME280;7902;49.042;9.092;2023-04-01T02:40:15;97650.53;;;13.88;54.36
15604;BME280;7902;49.042;9.092;2023-04-01T02:42:42;97663.88;;;13.86;54.07
15604;BME280;7902;49.042;9.092;2023-04-01T02:45:08;97649.53;;;13.97;54.61
15604;BME280;7902;49.042;9.092;2023-04-01T02:47:35;97660.94;;;13.73;54.89
15604;BME280;7902;49.042;9.092;2023-04-01T02:50:01;97660.09;;;13.81;54.19
15604;BME280;7902;49.042;9.092;2023-04-01T02:52:28;97659.59;;;13.77;54.54
15604;BME280;7902;49.042;9.092;2023-04-01T02:54:55;97661.75;;;13.82;53.92
15604;BME280;7902;49.042;9.092;2023-04-01T02:57:21;97646.91;;;13.81;54.55
15604;BME280;7902;49.042;9.092;2023-04-01T02:59:47;97671.78;;;13.70;54.34
15604;BME280;7902;49.042;9.092;2023-04-01T03:02:14;97645.75;;;13.75;54.07
15604;BME280;7902;49.042;9.092;2023-04-01T03:04:40;97650.53;;;13.80;54.34
15604;BME280;7902;49.042;9.092;2023-04-01T03:07:06;97648.41;;;13.83;53.75
15604;BME280;7902;49.042;9.092;2023-04-01T03:09:32;97652.19;;;13.89;53.80
15604;BME280;7902;49.042;9.092;2023-04-01T03:11:58;97659.44;;;13.71;53.71
15604;BME280;7902;49.042;9.092;2023-04-01T03:14:24;97639.34;;;13.61;54.61
15604;BME280;7902;49.042;9.092;2023-04-01T03:16:49;97648.91;;;13.62;54.04
15604;BME280;7902;49.042;9.092;2023-04-01T03:19:15;97629.78;;;13.60;54.47
15604;BME280;7902;49.042;9.092;2023-04-01T03:21:41;97630.44;;;13.79;54.27
15604;BME280;7902;49.042;9.092;2023-04-01T03:24:07;97632.25;;;13.62;54.13
15604;BME280;7902;49.042;9.092;2023-04-01T03:26:33;97639.16;;;13.63;53.94
15604;BME280;7902;49.042;9.092;2023-04-01T03:28:59;97637.34;;;13.72;54.45
15604;BME280;7902;49.042;9.092;2023-04-01T03:31:25;97642.78;;;13.62;54.67
15604;BME280;7902;49.042;9.092;2023-04-01T03:33:51;97635.38;;;13.57;54.23
15604;BME280;7902;49.042;9.092;2023-04-01T03:36:17;97646.91;;;13.56;54.27
15604;BME280;7902;49.042;9.092;2023-04-01T03:38:44;97641.81;;;13.63;54.04
15604;BME280;7902;49.042;9.092;2023-04-01T03:41:15;97640.97;;;13.62;54.44
15604;BME280;7902;49.042;9.092;2023-04-01T03:43:41;97652.19;;;13.56;53.97
15604;BME280;7902;49.042;9.092;2023-04-01T03:46:07;97648.06;;;13.54;54.62
15604;BME280;7902;49.042;9.092;2023-04-01T03:48:33;97642.81;;;13.46;53.92
15604;BME280;7902;49.042;9.092;2023-04-01T03:50:59;97649.72;;;13.63;54.49
15604;BME280;7902;49.042;9.092;2023-04-01T03:53:25;97646.75;;;13.50;54.53
15604;BME280;7902;49.042;9.092;2023-04-01T03:55:53;97646.91;;;13.56;54.36
15604;BME280;7902;49.042;9.092;2023-04-01T03:58:19;97647.44;;;13.60;54.19
15604;BME280;7902;49.042;9.092;2023-04-01T04:00:45;97657.31;;;13.50;54.64
15604;BME280;7902;49.042;9.092;2023-04-01T04:03:11;97660.09;;;13.48;55.21
15604;BME280;7902;49.042;9.092;2023-04-01T04:05:37;97659.47;;;13.54;54.68
15604;BME280;7902;49.042;9.092;2023-04-01T04:08:03;97650.88;;;13.52;55.43
15604;BME280;7902;49.042;9.092;2023-04-01T04:10:29;97646.59;;;13.59;54.55
15604;BME280;7902;49.042;9.092;2023-04-01T04:12:55;97653.81;;;13.66;54.91
15604;BME280;7902;49.042;9.092;2023-04-01T04:15:21;97648.25;;;13.60;54.80
15604;BME280;7902;49.042;9.092;2023-04-01T04:17:48;97658.28;;;13.57;54.68
15604;BME280;7902;49.042;9.092;2023-04-01T04:20:14;97641.97;;;13.61;54.92
15604;BME280;7902;49.042;9.092;2023-04-01T04:22:40;97645.28;;;13.39;55.91
15604;BME280;7902;49.042;9.092;2023-04-01T04:25:06;97644.78;;;13.36;55.36
15604;BME280;7902;49.042;9.092;2023-04-01T04:27:33;97643.16;;;13.51;54.62
15604;BME280;7902;49.042;9.092;2023-04-01T04:29:59;97638.34;;;13.38;55.68
15604;BME280;7902;49.042;9.092;2023-04-01T04:32:25;97640.66;;;13.49;55.18
15604;BME280;7902;49.042;9.092;2023-04-01T04:34:50;97636.84;;;13.52;55.36
15604;BME280;7902;49.042;9.092;2023-04-01T04:37:16;97637.19;;;13.49;54.89
15604;BME280;7902;49.042;9.092;2023-04-01T04:39:42;97639.00;;;13.48;55.06
15604;BME280;7902;49.042;9.092;2023-04-01T04:42:08;97638.84;;;13.34;55.13
15604;BME280;7902;49.042;9.092;2023-04-01T04:44:34;97640.34;;;13.36;55.15
15604;BME280;7902;49.042;9.092;2023-04-01T04:47:01;97647.75;;;13.41;55.60
15604;BME280;7902;49.042;9.092;2023-04-01T04:49:26;97632.25;;;13.38;55.08
15604;BME280;7902;49.042;9.092;2023-04-01T04:51:52;97635.22;;;13.43;54.84
15604;BME280;7902;49.042;9.092;2023-04-01T04:54:18;97637.84;;;13.35;54.93
15604;BME280;7902;49.042;9.092;2023-04-01T04:56:44;97633.41;;;13.51;54.58
15604;BME280;7902;49.042;9.092;2023-04-01T04:59:10;97633.41;;;13.35;55.09
15604;BME280;7902;49.042;9.092;2023-04-01T05:01:36;97639.00;;;13.48;54.50
15604;BME280;7902;49.042;9.092;2023-04-01T05:04:02;97637.38;;;13.55;54.00
15604;BME280;7902;49.042;9.092;2023-04-01T05:06:28;97630.78;;;13.43;54.19
15604;BME280;7902;49.042;9.092;2023-04-01T05:08:55;97621.69;;;13.70;54.20
15604;BME280;7902;49.042;9.092;2023-04-01T05:11:22;97628.63;;;13.39;54.33
15604;BME280;7902;49.042;9.092;2023-04-01T05:13:48;97640.81;;;13.48;54.28
15604;BME280;7902;49.042;9.092;2023-04-01T05:16:16;97624.00;;;13.49;53.99
15604;BME280;7902;49.042;9.092;2023-04-01T05:18:43;97638.34;;;13.54;54.27
15604;BME280;7902;49.042;9.092;2023-04-01T05:21:10;97623.53;;;13.45;53.98
15604;BME280;7902;49.042;9.092;2023-04-01T05:23:37;97622.19;;;13.57;53.79
15604;BME280;7902;49.042;9.092;2023-04-01T05:26:05;97617.59;;;13.59;53.43
15604;BME280;7902;49.042;9.092;2023-04-01T05:28:31;97609.66;;;13.51;53.99
15604;BME280;7902;49.042;9.092;2023-04-01T05:31:04;97610.00;;;13.56;54.18
15604;BME280;7902;49.042;9.092;2023-04-01T05:33:31;97615.94;;;13.58;53.69
15604;BME280;7902;49.042;9.092;2023-04-01T05:36:14;97616.91;;;13.66;53.23
15604;BME280;7902;49.042;9.092;2023-04-01T05:38:40;97608.84;;;13.67;53.60
15604;BME280;7902;49.042;9.092;2023-04-01T05:41:07;97610.81;;;13.73;53.79
15604;BME280;7902;49.042;9.092;2023-04-01T05:43:37;97620.38;;;13.66;53.19
15604;BME280;7902;49.042;9.092;2023-04-01T05:46:03;97618.06;;;13.79;53.72
15604;BME280;7902;49.042;9.092;2023-04-01T05:48:30;97608.03;;;13.75;53.50
15604;BME280;7902;49.042;9.092;2023-04-01T05:50:55;97611.63;;;13.74;53.74
15604;BME280;7902;49.042;9.092;2023-04-01T05:53:21;97613.31;;;13.58;53.46
15604;BME280;7902;49.042;9.092;2023-04-01T05:55:47;97616.41;;;13.78;53.22
15604;BME280;7902;49.042;9.092;2023-04-01T05:58:13;97610.63;;;13.83;53.16
15604;BME280;7902;49.042;9.092;2023-04-01T06:00:39;97620.19;;;13.92;53.13
15604;BME280;7902;49.042;9.092;2023-04-01T06:03:05;97610.44;;;13.92;52.67
15604;BME280;7902;49.042;9.092;2023-04-01T06:05:39;97617.19;;;14.03;52.86
15604;BME280;7902;49.042;9.092;2023-04-01T06:08:10;97614.38;;;14.04;52.85
15604;BME280;7902;49.042;9.092;2023-04-01T06:13:44;97627.09;;;14.01;53.30
15604;BME280;7902;49.042;9.092;2023-04-01T06:33:02;97614.75;;;13.85;54.10
15604;BME280;7902;49.042;9.092;2023-04-01T06:44:31;97617.19;;;14.03;54.41
15604;BME280;7902;49.042;9.092;2023-04-01T06:46:47;97626.28;;;13.92;54.50
15604;BME280;7902;49.042;9.092;2023-04-01T06:51:53;97621.66;;;14.02;55.23
15604;BME280;7902;49.042;9.092;2023-04-01T06:54:32;97629.22;;;14.05;54.69
15604;BME280;7902;49.042;9.092;2023-04-01T06:57:08;97634.00;;;14.10;55.12
15604;BME280;7902;49.042;9.092;2023-04-01T06:59:38;97630.19;;;14.13;54.79
15604;BME280;7902;49.042;9.092;2023-04-01T07:02:21;97639.59;;;14.15;55.50
15604;BME280;7902;49.042;9.092;2023-04-01T07:04:48;97624.63;;;14.07;55.51
15604;BME280;7902;49.042;9.092;2023-04-01T07:07:36;97622.75;;;14.08;54.67
15604;BME280;7902;49.042;9.092;2023-04-01T07:10:10;97632.81;;;14.13;54.73
15604;BME280;7902;49.042;9.092;2023-04-01T07:12:46;97614.84;;;14.08;55.17
15604;BME280;7902;49.042;9.092;2023-04-01T07:15:21;97619.84;;;13.95;55.33
15604;BME280;7902;49.042;9.092;2023-04-01T07:17:54;97624.56;;;14.16;55.35
15604;BME280;7902;49.042;9.092;2023-04-01T07:20:27;97639.28;;;14.10;55.67
15604;BME280;7902;49.042;9.092;2023-04-01T07:23:00;97626.59;;;14.05;55.80
15604;BME280;7902;49.042;9.092;2023-04-01T07:25:34;97625.75;;;14.05;55.66
15604;BME280;7902;49.042;9.092;2023-04-01T07:28:05;97629.72;;;14.01;55.51
15604;BME280;7902;49.042;9.092;2023-04-01T07:31:04;97622.16;;;13.90;55.61
15604;BME280;7902;49.042;9.092;2023-04-01T07:33:41;97624.78;;;13.98;55.26
15604;BME280;7902;49.042;9.092;2023-04-01T07:39:23;97638.91;;;14.13;55.70
15604;BME280;7902;49.042;9.092;2023-04-01T07:41:50;97643.06;;;14.16;55.72
15604;BME280;7902;49.042;9.092;2023-04-01T07:44:42;97641.91;;;14.10;55.62
15604;BME280;7902;49.042;9.092;2023-04-01T07:47:45;97632.50;;;14.16;55.61
15604;BME280;7902;49.042;9.092;2023-04-01T07:50:21;97638.25;;;14.19;55.71
15604;BME280;7902;49.042;9.092;2023-04-01T07:53:06;97635.47;;;14.04;55.46
15604;BME280;7902;49.042;9.092;2023-04-01T07:55:49;97644.53;;;14.10;54.99
15604;BME280;7902;49.042;9.092;2023-04-01T08:01:19;97652.78;;;14.15;54.88
15604;BME280;7902;49.042;9.092;2023-04-01T08:06:42;97652.44;;;14.18;54.88
15604;BME280;7902;49.042;9.092;2023-04-01T08:09:30;97642.91;;;14.17;55.68
15604;BME280;7902;49.042;9.092;2023-04-01T08:12:04;97656.41;;;14.14;55.36
15604;BME280;7902;49.042;9.092;2023-04-01T08:22:45;97665.00;;;14.08;56.95
15604;BME280;7902;49.042;9.092;2023-04-01T08:25:17;97674.75;;;14.07;57.48
15604;BME280;7902;49.042;9.092;2023-04-01T08:27:51;97686.94;;;14.08;57.78
15604;BME280;7902;49.042;9.092;2023-04-01T08:30:24;97666.34;;;13.96;58.42
15604;BME280;7902;49.042;9.092;2023-04-01T08:33:39;97667.53;;;13.69;59.53
15604;BME280;7902;49.042;9.092;2023-04-01T08:36:08;97661.25;;;13.78;59.39
15604;BME280;7902;49.042;9.092;2023-04-01T08:38:42;97665.88;;;13.68;60.44
15604;BME280;7902;49.042;9.092;2023-04-01T08:52:35;97648.88;;;13.87;60.23
15604;BME280;7902;49.042;9.092;2023-04-01T08:55:25;97653.19;;;13.88;60.55
15604;BME280;7902;49.042;9.092;2023-04-01T09:00:49;97648.56;;;13.82;59.97
15604;BME280;7902;49.042;9.092;2023-04-01T09:03:27;97654.47;;;13.92;59.24
15604;BME280;7902;49.042;9.092;2023-04-01T09:06:17;97658.09;;;13.91;60.03
15604;BME280;7902;49.042;9.092;2023-04-01T09:11:55;97655.63;;;13.97;59.57
15604;BME280;7902;49.042;9.092;2023-04-01T09:28:28;97663.84;;;14.11;59.18
15604;BME280;7902;49.042;9.092;2023-04-01T09:31:17;97670.13;;;14.10;58.50
15604;BME280;7902;49.042;9.092;2023-04-01T09:39:37;97668.94;;;14.20;58.16
15604;BME280;7902;49.042;9.092;2023-04-01T09:44:53;97678.16;;;14.24;58.02
15604;BME280;7902;49.042;9.092;2023-04-01T09:50:38;97672.41;;;14.21;57.76
15604;BME280;7902;49.042;9.092;2023-04-01T09:53:27;97669.78;;;14.13;56.78
15604;BME280;7902;49.042;9.092;2023-04-01T09:56:08;97667.25;;;14.27;56.74
15604;BME280;7902;49.042;9.092;2023-04-01T10:13:14;97690.38;;;14.41;56.41
15604;BME280;7902;49.042;9.092;2023-04-01T10:21:57;97685.75;;;14.35;56.83
15604;BME280;7902;49.042;9.092;2023-04-01T10:24:48;97685.50;;;14.61;55.42
15604;BME280;7902;49.042;9.092;2023-04-01T10:51:10;97693.66;;;14.43;57.13
15604;BME280;7902;49.042;9.092;2023-04-01T10:53:49;97685.41;;;14.46;56.82
15604;BME280;7902;49.042;9.092;2023-04-01T10:56:50;97693.66;;;14.43;57.47
15604;BME280;7902;49.042;9.092;2023-04-01T11:13:54;97695.91;;;14.63;57.54
15604;BME280;7902;49.042;9.092;2023-04-01T11:33:35;97702.00;;;14.71;57.66
15604;BME280;7902;49.042;9.092;2023-04-01T11:36:37;97699.50;;;14.78;56.97
15604;BME280;7902;49.042;9.092;2023-04-01T11:42:26;97709.88;;;14.87;56.64
15604;BME280;7902;49.042;9.092;2023-04-01T11:45:07;97708.06;;;14.80;56.98
15604;BME280;7902;49.042;9.092;2023-04-01T11:48:37;97704.47;;;14.73;56.73
15604;BME280;7902;49.042;9.092;2023-04-01T11:59:53;97713.81;;;14.91;56.65
15604;BME280;7902;49.042;9.092;2023-04-01T12:08:39;97720.66;;;14.78;55.48
15604;BME280;7902;49.042;9.092;2023-04-01T12:11:29;97726.59;;;14.72;55.26
15604;BME280;7902;49.042;9.092;2023-04-01T12:14:24;97745.53;;;14.83;55.36
15604;BME280;7902;49.042;9.092;2023-04-01T12:17:10;97737.00;;;14.73;56.65
15604;BME280;7902;49.042;9.092;2023-04-01T12:19:52;97734.94;;;14.91;56.27
15604;BME280;7902;49.042;9.092;2023-04-01T12:31:02;97743.72;;;14.84;56.21
15604;BME280;7902;49.042;9.092;2023-04-01T12:36:35;97749.84;;;14.84;56.91
15604;BME280;7902;49.042;9.092;2023-04-01T12:42:27;97751.00;;;14.74;56.88
15604;BME280;7902;49.042;9.092;2023-04-01T12:45:07;97751.72;;;14.60;57.35
15604;BME280;7902;49.042;9.092;2023-04-01T12:53:41;97750.41;;;14.64;58.49
15604;BME280;7902;49.042;9.092;2023-04-01T12:59:14;97760.78;;;14.65;58.77
15604;BME280;7902;49.042;9.092;2023-04-01T13:10:10;97768.00;;;14.79;58.01
15604;BME280;7902;49.042;9.092;2023-04-01T13:12:50;97764.38;;;14.80;57.82
15604;BME280;7902;49.042;9.092;2023-04-01T13:15:41;97778.06;;;14.92;58.60
15604;BME280;7902;49.042;9.092;2023-04-01T13:32:05;97772.81;;;14.76;58.11
15604;BME280;7902;49.042;9.092;2023-04-01T13:43:04;97775.09;;;14.79;58.08
15604;BME280;7902;49.042;9.092;2023-04-01T13:48:27;97786.19;;;14.74;57.91
15604;BME280;7902;49.042;9.092;2023-04-01T13:57:26;97788.31;;;14.79;57.31
15604;BME280;7902;49.042;9.092;2023-04-01T14:03:30;97803.22;;;14.72;58.79
15604;BME280;7902;49.042;9.092;2023-04-01T14:11:33;97798.41;;;14.75;58.35
15604;BME280;7902;49.042;9.092;2023-04-01T14:14:12;97781.41;;;14.70;59.04
15604;BME280;7902;49.042;9.092;2023-04-01T14:22:54;97785.53;;;14.80;57.77
15604;BME280;7902;49.042;9.092;2023-04-01T14:38:46;97801.19;;;14.90;57.44
15604;BME280;7902;49.042;9.092;2023-04-01T14:49:23;97816.50;;;15.11;56.51
15604;BME280;7902;49.042;9.092;2023-04-01T14:51:50;97814.16;;;15.16;55.76
15604;BME280;7902;49.042;9.092;2023-04-01T14:54:22;97827.34;;;15.24;56.52
15604;BME280;7902;49.042;9.092;2023-04-01T14:57:15;97807.13;;;15.39;56.68
15604;BME280;7902;49.042;9.092;2023-04-01T15:02:42;97816.13;;;15.14;56.10
15604;BME280;7902;49.042;9.092;2023-04-01T15:08:12;97819.78;;;15.13;55.94
15604;BME280;7902;49.042;9.092;2023-04-01T15:10:48;97822.22;;;15.22;56.72
15604;BME280;7902;49.042;9.092;2023-04-01T15:16:31;97823.91;;;15.07;57.12
15604;BME280;7902;49.042;9.092;2023-04-01T15:19:04;97830.03;;;15.08;57.12
15604;BME280;7902;49.042;9.092;2023-04-01T15:24:49;97833.06;;;14.97;56.36
15604;BME280;7902;49.042;9.092;2023-04-01T15:38:30;97849.53;;;15.07;56.30
15604;BME280;7902;49.042;9.092;2023-04-01T15:54:54;97851.75;;;14.79;57.49
15604;BME280;7902;49.042;9.092;2023-04-01T15:57:35;97853.03;;;14.99;56.44
15604;BME280;7902;49.042;9.092;2023-04-01T16:00:10;97857.03;;;14.87;56.10
15604;BME280;7902;49.042;9.092;2023-04-01T16:11:17;97852.56;;;14.87;57.17
15604;BME280;7902;49.042;9.092;2023-04-01T16:22:12;97872.88;;;14.95;56.01
15604;BME280;7902;49.042;9.092;2023-04-01T16:24:51;97871.22;;;14.86;57.01
15604;BME280;7902;49.042;9.092;2023-04-01T16:27:27;97883.09;;;14.98;56.24
15604;BME280;7902;49.042;9.092;2023-04-01T16:30:41;97872.38;;;14.91;55.72
15604;BME280;7902;49.042;9.092;2023-04-01T16:33:01;97878.69;;;14.82;56.29
15604;BME280;7902;49.042;9.092;2023-04-01T16:38:22;97882.47;;;14.80;56.27
15604;BME280;7902;49.042;9.092;2023-04-01T16:41:00;97874.88;;;14.77;56.09
15604;BME280;7902;49.042;9.092;2023-04-01T16:43:53;97898.66;;;14.77;56.21
15604;BME280;7902;49.042;9.092;2023-04-01T16:46:41;97871.22;;;14.94;56.42
15604;BME280;7902;49.042;9.092;2023-04-01T16:57:20;97880.47;;;14.74;55.99
15604;BME280;7902;49.042;9.092;2023-04-01T17:05:16;97892.03;;;14.81;56.15
15604;BME280;7902;49.042;9.092;2023-04-01T17:10:39;97903.78;;;14.78;56.47
15604;BME280;7902;49.042;9.092;2023-04-01T17:15:47;97900.00;;;14.73;56.82
15604;BME280;7902;49.042;9.092;2023-04-01T17:24:31;97922.44;;;14.85;56.19
15604;BME280;7902;49.042;9.092;2023-04-01T17:27:23;97928.88;;;14.74;56.99
15604;BME280;7902;49.042;9.092;2023-04-01T17:35:31;97935.34;;;14.64;57.05
15604;BME280;7902;49.042;9.092;2023-04-01T17:38:23;97937.31;;;14.78;56.39
15604;BME280;7902;49.042;9.092;2023-04-01T17:40:52;97941.94;;;14.68;57.31
15604;BME280;7902;49.042;9.092;2023-04-01T17:46:09;97945.56;;;14.59;57.53
15604;BME280;7902;49.042;9.092;2023-04-01T17:48:51;97949.34;;;14.40;57.68
15604;BME280;7902;49.042;9.092;2023-04-01T17:51:31;97943.06;;;14.41;57.55
15604;BME280;7902;49.042;9.092;2023-04-01T17:54:23;97950.47;;;14.37;57.05
15604;BME280;7902;49.042;9.092;2023-04-01T17:59:38;97963.69;;;14.37;57.06
15604;BME280;7902;49.042;9.092;2023-04-01T18:08:02;97981.09;;;14.14;57.67
15604;BME280;7902;49.042;9.092;2023-04-01T18:10:54;97975.09;;;14.46;57.34
15604;BME280;7902;49.042;9.092;2023-04-01T18:19:10;97985.13;;;14.34;56.57
15604;BME280;7902;49.042;9.092;2023-04-01T18:21:49;97982.34;;;14.36;56.60
15604;BME280;7902;49.042;9.092;2023-04-01T18:24:22;97989.25;;;14.37;57.00
15604;BME280;7902;49.042;9.092;2023-04-01T18:27:17;97991.94;;;14.45;57.24
15604;BME280;7902;49.042;9.092;2023-04-01T18:32:34;97993.50;;;14.30;56.73
15604;BME280;7902;49.042;9.092;2023-04-01T18:35:16;98003.06;;;14.23;57.47
15604;BME280;7902;49.042;9.092;2023-04-01T18:37:59;97995.31;;;14.21;57.33
15604;BME280;7902;49.042;9.092;2023-04-01T18:40:36;98002.16;;;13.98;57.25
15604;BME280;7902;49.042;9.092;2023-04-01T18:43:16;98010.88;;;13.98;56.99
15604;BME280;7902;49.042;9.092;2023-04-01T18:45:54;98020.03;;;14.12;57.14
15604;BME280;7902;49.042;9.092;2023-04-01T18:56:06;98011.44;;;14.10;56.88
15604;BME280;7902;49.042;9.092;2023-04-01T18:58:45;98019.97;;;13.96;57.49
15604;BME280;7902;49.042;9.092;2023-04-01T19:06:18;98039.13;;;14.06;56.91
15604;BME280;7902;49.042;9.092;2023-04-01T19:08:45;98040.09;;;13.97;57.57
15604;BME280;7902;49.042;9.092;2023-04-01T19:11:36;98042.88;;;13.95;57.56
15604;BME280;7902;49.042;9.092;2023-04-01T19:14:23;98046.03;;;13.99;58.03
15604;BME280;7902;49.042;9.092;2023-04-01T19:17:22;98046.22;;;13.72;59.13
15604;BME280;7902;49.042;9.092;2023-04-01T19:27:55;98049.69;;;14.06;57.51
15604;BME280;7902;49.042;9.092;2023-04-01T19:30:45;98051.31;;;13.99;57.80
15604;BME280;7902;49.042;9.092;2023-04-01T19:41:39;98056.56;;;13.91;58.87
15604;BME280;7902;49.042;9.092;2023-04-01T19:46:44;98058.84;;;13.86;58.24
15604;BME280;7902;49.042;9.092;2023-04-01T19:49:18;98065.47;;;13.64;59.40
15604;BME280;7902;49.042;9.092;2023-04-01T19:54:27;98063.38;;;13.76;58.55
15604;BME280;7902;49.042;9.092;2023-04-01T20:08:12;98083.19;;;13.80;59.19
15604;BME280;7902;49.042;9.092;2023-04-01T20:16:12;98088.38;;;13.63;59.21
15604;BME280;7902;49.042;9.092;2023-04-01T20:21:24;98096.09;;;13.83;58.95
15604;BME280;7902;49.042;9.092;2023-04-01T20:23:59;98094.56;;;13.80;59.04
15604;BME280;7902;49.042;9.092;2023-04-01T20:26:36;98098.41;;;13.86;58.53
15604;BME280;7902;49.042;9.092;2023-04-01T20:32:05;98095.63;;;13.61;60.00
15604;BME280;7902;49.042;9.092;2023-04-01T20:34:42;98103.03;;;13.84;58.96
15604;BME280;7902;49.042;9.092;2023-04-01T20:51:21;98113.94;;;13.89;58.69
15604;BME280;7902;49.042;9.092;2023-04-01T20:53:51;98121.53;;;13.92;58.50
15604;BME280;7902;49.042;9.092;2023-04-01T20:59:25;98128.41;;;13.85;58.92
15604;BME280;7902;49.042;9.092;2023-04-01T21:11:01;98140.59;;;13.78;58.83
15604;BME280;7902;49.042;9.092;2023-04-01T21:13:42;98142.06;;;13.80;58.82
15604;BME280;7902;49.042;9.092;2023-04-01T21:24:59;98160.81;;;13.95;58.40
15604;BME280;7902;49.042;9.092;2023-04-01T21:27:56;98160.72;;;13.79;59.02
15604;BME280;7902;49.042;9.092;2023-04-01T21:33:38;98169.69;;;13.94;58.42
15604;BME280;7902;49.042;9.092;2023-04-01T21:36:38;98160.28;;;13.91;58.35
15604;BME280;7902;49.042;9.092;2023-04-01T21:39:22;98161.78;;;13.94;57.83
15604;BME280;7902;49.042;9.092;2023-04-01T21:45:06;98167.94;;;13.77;58.60
15604;BME280;7902;49.042;9.092;2023-04-01T21:50:43;98181.78;;;13.96;58.28
15604;BME280;7902;49.042;9.092;2023-04-01T22:07:25;98185.19;;;13.89;58.49
15604;BME280;7902;49.042;9.092;2023-04-01T22:15:40;98179.19;;;13.79;58.91
15604;BME280;7902;49.042;9.092;2023-04-01T22:20:56;98185.25;;;13.97;57.98
15604;BME280;7902;49.042;9.092;2023-04-01T22:23:44;98182.38;;;13.90;58.04
15604;BME280;7902;49.042;9.092;2023-04-01T22:29:01;98195.63;;;13.73;58.73
15604;BME280;7902;49.042;9.092;2023-04-01T22:34:42;98190.25;;;13.82;58.26
15604;BME280;7902;49.042;9.092;2023-04-01T22:37:38;98196.53;;;13.63;59.37
15604;BME280;7902;49.042;9.092;2023-04-01T22:40:23;98193.59;;;13.67;58.89
15604;BME280;7902;49.042;9.092;2023-04-01T22:43:11;98202.84;;;13.71;58.39
15604;BME280;7902;49.042;9.092;2023-04-01T22:48:49;98208.06;;;13.62;58.72
15604;BME280;7902;49.042;9.092;2023-04-01T22:51:52;98204.91;;;13.59;59.21